Terminal Aerodrome Forecast
Issued by NWS Paducah, KY

Home | Current Version | Previous Version | Text Only | Print | Product List | Glossary On
Versions: 1 2 3 4 5 6 7 8 9 10 11 12 13 14 15 16 17 18
964
FTUS43 KPAH 062329
TAFEVV
TAF
KEVV 062329Z 0700/0724 21003KT P6SM SCT250
     FM071600 21012G18KT P6SM BKN200=

USA.gov is the U.S. government's official web portal to all federal, state and local government web resources and services.